Time;durP1;ratioP1;P1;durP2;ratioP2;P2;SDS_P1;SDS_P2;PMS_P1;PMS_P2;Temp;Humidity;BMP_temperature;BMP_pressure;BME280_temperature;BME280_humidity;BME280_pressure;Samples;Min_cycle;Max_cycle;Signal;HPM_P1;HPM_P2
2021/08/05 00:02:03;;;;;;;3.83;2.88;;;;;;;15.43;78.15;100517.41;5000246;28;20046;-80
2021/08/05 00:04:30;;;;;;;5.38;2.85;;;;;;;15.51;77.51;100527.41;5003637;28;20046;-79
2021/08/05 00:06:57;;;;;;;5.78;2.83;;;;;;;15.44;77.62;100524.38;5000990;28;20148;-83
2021/08/05 00:09:24;;;;;;;14.30;3.22;;;;;;;15.58;76.80;100523.25;5015528;28;20084;-83
2021/08/05 00:11:52;;;;;;;5.78;2.85;;;;;;;15.51;77.00;100525.56;4993639;28;20400;-80
2021/08/05 00:14:19;;;;;;;6.50;2.90;;;;;;;15.39;77.62;100523.91;4982640;28;20050;-80
2021/08/05 00:16:46;;;;;;;10.82;3.38;;;;;;;15.43;76.93;100523.53;4990411;28;20046;-79
2021/08/05 00:19:14;;;;;;;9.63;2.88;;;;;;;15.38;77.30;100520.41;4995053;28;20503;-80
2021/08/05 00:21:41;;;;;;;6.43;3.20;;;;;;;15.24;77.90;100512.72;4997729;28;20133;-82
2021/08/05 00:24:08;;;;;;;4.22;3.08;;;;;;;15.29;77.28;100522.97;4970622;28;20458;-80
2021/08/05 00:26:35;;;;;;;3.85;2.38;;;;;;;15.32;77.64;100522.75;4974965;28;20080;-82
2021/08/05 00:29:02;;;;;;;5.97;2.90;;;;;;;15.33;76.98;100519.13;4988622;28;20038;-84
2021/08/05 00:31:30;;;;;;;6.20;2.83;;;;;;;15.36;77.02;100514.41;4988841;28;20149;-81
2021/08/05 00:33:57;;;;;;;5.85;2.63;;;;;;;15.25;77.63;100518.88;5004805;28;20132;-84
2021/08/05 00:36:30;;;;;;;4.93;2.50;;;;;;;15.25;77.64;100519.72;5005995;28;20042;-79
2021/08/05 00:38:57;;;;;;;4.65;2.97;;;;;;;15.30;77.11;100516.69;5020230;28;20050;-84
2021/08/05 00:41:24;;;;;;;5.82;2.70;;;;;;;15.32;76.99;100520.09;4990979;28;20084;-81
2021/08/05 00:43:52;;;;;;;6.72;2.70;;;;;;;15.36;77.15;100519.72;5004355;28;20464;-80
2021/08/05 00:46:19;;;;;;;5.05;2.85;;;;;;;15.25;77.53;100514.41;4991740;28;20532;-83
2021/08/05 00:48:46;;;;;;;7.40;2.58;;;;;;;15.15;78.19;100521.44;5004469;28;20060;-79
2021/08/05 00:51:14;;;;;;;6.22;2.80;;;;;;;15.20;78.05;100512.13;5006649;28;20046;-79
2021/08/05 00:53:44;;;;;;;9.25;2.88;;;;;;;15.11;78.46;100512.03;4988011;28;20078;-80
2021/08/05 00:56:12;;;;;;;3.83;2.28;;;;;;;15.11;78.50;100512.03;4986901;28;20469;-81
2021/08/05 00:58:39;;;;;;;7.93;2.88;;;;;;;15.07;78.85;100511.41;4983932;28;20120;-80
2021/08/05 01:01:14;;;;;;;5.63;2.97;;;;;;;15.05;78.60;100509.88;4990088;28;20050;-81
2021/08/05 01:03:43;;;;;;;6.50;3.15;;;;;;;15.02;79.20;100512.75;4988353;28;20026;-79
2021/08/05 01:06:32;;;;;;;5.95;2.75;;;;;;;14.96;79.66;100510.59;5007569;28;20045;-81
2021/08/05 01:09:17;;;;;;;5.35;2.20;;;;;;;15.12;78.78;100505.75;5004692;28;20037;-79
2021/08/05 01:11:52;;;;;;;6.03;2.57;;;;;;;15.16;78.66;100500.09;4993663;28;20136;-81
2021/08/05 01:14:20;;;;;;;5.30;2.70;;;;;;;14.99;79.59;100499.75;4976811;28;20556;-81
2021/08/05 01:16:49;;;;;;;5.72;2.65;;;;;;;14.97;79.68;100493.72;4994601;28;20349;-79
2021/08/05 01:19:43;;;;;;;6.68;2.55;;;;;;;14.98;79.53;100492.75;4976898;28;20061;-81
2021/08/05 01:22:35;;;;;;;7.50;3.03;;;;;;;14.82;80.70;100485.19;4993171;28;20060;-81
2021/08/05 01:25:37;;;;;;;6.35;2.63;;;;;;;15.03;79.55;100488.78;4961091;28;20468;-81
2021/08/05 01:28:05;;;;;;;8.20;3.20;;;;;;;14.99;79.29;100482.03;4975341;28;20060;-82
2021/08/05 01:30:34;;;;;;;3.75;2.40;;;;;;;14.90;79.93;100474.81;4974143;28;20128;-80
2021/08/05 01:33:02;;;;;;;7.60;3.00;;;;;;;14.82;80.27;100478.09;4984412;28;20131;-78
2021/08/05 01:35:30;;;;;;;6.95;2.55;;;;;;;14.89;80.19;100471.31;4976919;28;20066;-80
2021/08/05 01:37:58;;;;;;;5.13;3.00;;;;;;;14.83;80.62;100469.16;4959060;28;20041;-79
2021/08/05 01:40:26;;;;;;;7.00;3.17;;;;;;;14.74;81.05;100480.47;4994056;28;20520;-79
2021/08/05 01:42:56;;;;;;;8.00;2.70;;;;;;;14.79;80.71;100472.16;4990271;28;20061;-83
2021/08/05 01:45:23;;;;;;;4.90;2.90;;;;;;;14.98;79.56;100474.19;4977862;28;20084;-81
2021/08/05 01:47:50;;;;;;;6.45;2.88;;;;;;;14.98;79.59;100474.19;4961509;28;20159;-81
2021/08/05 01:50:18;;;;;;;4.38;2.85;;;;;;;15.02;79.15;100470.34;4963180;28;20445;-78
2021/08/05 01:52:45;;;;;;;3.92;2.60;;;;;;;15.06;79.03;100469.97;4956176;28;20057;-81
2021/08/05 01:55:13;;;;;;;4.25;3.08;;;;;;;14.97;79.72;100473.34;5010581;28;20041;-80
2021/08/05 01:57:40;;;;;;;9.65;3.03;;;;;;;14.98;79.55;100469.75;5012963;28;20054;-81
2021/08/05 02:00:09;;;;;;;5.22;2.92;;;;;;;14.84;80.14;100467.34;5004276;28;20137;-80
2021/08/05 02:02:37;;;;;;;3.95;2.80;;;;;;;14.80;80.50;100471.19;4985222;28;20560;-81
2021/08/05 02:05:17;;;;;;;3.80;2.97;;;;;;;14.93;80.16;100471.91;4992600;28;20115;-80
2021/08/05 02:08:07;;;;;;;6.88;2.78;;;;;;;14.88;80.40;100466.97;4971771;28;20046;-80
2021/08/05 02:10:37;;;;;;;6.15;3.05;;;;;;;14.84;80.71;100470.84;5027663;28;20050;-80
2021/08/05 02:13:27;;;;;;;7.32;2.88;;;;;;;14.85;80.66;100467.22;4988848;28;20057;-79
2021/08/05 02:15:57;;;;;;;4.57;2.75;;;;;;;14.96;80.17;100466.38;5008921;28;20077;-80
2021/08/05 02:18:27;;;;;;;3.80;2.65;;;;;;;14.85;80.65;100467.22;4992434;28;20230;-78
2021/08/05 02:20:55;;;;;;;4.07;2.90;;;;;;;14.83;81.19;100468.31;4995908;28;20073;-79
2021/08/05 02:23:23;;;;;;;5.15;2.60;;;;;;;14.81;81.30;100462.28;5001792;28;20098;-80
2021/08/05 02:25:51;;;;;;;5.78;2.95;;;;;;;14.82;80.89;100462.19;4987901;28;20104;-81
2021/08/05 02:28:18;;;;;;;5.35;2.97;;;;;;;14.84;81.22;100459.41;4986008;28;20428;-83
2021/08/05 02:30:56;;;;;;;5.68;2.78;;;;;;;14.82;81.40;100458.69;5007644;28;20049;-80
2021/08/05 02:33:37;;;;;;;9.68;3.58;;;;;;;14.67;81.54;100458.91;4966526;28;20082;-83
2021/08/05 02:36:05;;;;;;;3.80;2.70;;;;;;;14.84;81.30;100460.25;4984947;28;20050;-79
2021/08/05 02:38:32;;;;;;;5.78;3.03;;;;;;;14.94;80.65;100455.88;4975567;28;20080;-82
2021/08/05 02:40:59;;;;;;;7.88;3.10;;;;;;;14.91;80.88;100455.31;4983979;28;20050;-79
2021/08/05 02:43:28;;;;;;;6.55;3.15;;;;;;;14.90;80.91;100459.78;4991715;28;20133;-79
2021/08/05 02:45:56;;;;;;;5.78;3.22;;;;;;;14.86;81.58;100455.66;4993752;28;20076;-80
2021/08/05 02:48:24;;;;;;;8.00;2.95;;;;;;;14.76;81.55;100460.00;4983850;28;20128;-80
2021/08/05 02:50:55;;;;;;;12.23;3.63;;;;;;;14.84;81.42;100448.78;5005821;28;20599;-82
2021/08/05 02:53:23;;;;;;;7.18;2.88;;;;;;;14.87;81.00;100453.88;4974300;28;20503;-81
2021/08/05 02:55:50;;;;;;;6.10;3.08;;;;;;;15.00;80.23;100454.56;4978067;28;20058;-85
2021/08/05 02:58:17;;;;;;;4.07;2.85;;;;;;;14.85;81.18;100450.47;4979602;28;20050;-79
2021/08/05 03:00:45;;;;;;;12.45;3.85;;;;;;;14.94;80.65;100449.75;4977632;28;20109;-83
2021/08/05 03:03:12;;;;;;;6.45;3.28;;;;;;;14.77;81.70;100455.53;5004288;28;20246;-79
2021/08/05 03:05:41;;;;;;;8.07;2.78;;;;;;;14.66;82.26;100459.88;4988304;28;20149;-80
2021/08/05 03:08:08;;;;;;;10.98;3.30;;;;;;;14.65;82.19;100455.56;5002107;28;20140;-78
2021/08/05 03:10:35;;;;;;;9.10;3.28;;;;;;;14.64;82.13;100453.03;5010285;28;20078;-80
2021/08/05 03:13:02;;;;;;;11.15;3.28;;;;;;;14.64;82.46;100453.88;4979002;28;20073;-80
2021/08/05 03:15:31;;;;;;;11.52;3.38;;;;;;;14.70;82.44;100455.19;4996821;28;20093;-81
2021/08/05 03:17:58;;;;;;;10.10;2.90;;;;;;;14.83;81.22;100457.72;4974158;28;20544;-80
2021/08/05 03:20:25;;;;;;;6.13;3.47;;;;;;;14.74;81.71;100453.16;4998845;28;20077;-81
2021/08/05 03:22:52;;;;;;;7.47;3.10;;;;;;;14.90;80.84;100445.66;4996024;28;20113;-83
2021/08/05 03:25:19;;;;;;;8.65;3.85;;;;;;;14.82;81.44;100448.94;5008241;28;20141;-80
2021/08/05 03:27:47;;;;;;;8.07;3.63;;;;;;;14.76;81.78;100451.22;4986007;28;20124;-85
2021/08/05 03:30:15;;;;;;;10.45;3.50;;;;;;;14.86;80.89;100445.06;5005510;28;20046;-82
2021/08/05 03:32:43;;;;;;;11.60;3.50;;;;;;;14.69;81.92;100443.75;4990612;28;20138;-82
2021/08/05 03:35:10;;;;;;;7.80;3.75;;;;;;;14.65;82.44;100452.06;4992942;28;20137;-81
2021/08/05 03:37:37;;;;;;;10.05;3.38;;;;;;;14.54;82.71;100450.22;5000779;28;20046;-82
2021/08/05 03:40:05;;;;;;;7.30;3.70;;;;;;;14.63;82.92;100449.53;4984429;28;20125;-85
2021/08/05 03:42:32;;;;;;;10.32;3.05;;;;;;;14.65;82.34;100449.41;4980398;28;20141;-81
2021/08/05 03:45:00;;;;;;;9.57;3.20;;;;;;;14.62;82.31;100439.88;5005225;28;20064;-82
2021/08/05 03:47:27;;;;;;;4.40;2.90;;;;;;;14.60;82.84;100441.81;4989486;28;20659;-81
2021/08/05 03:49:54;;;;;;;4.85;3.08;;;;;;;14.62;82.87;100442.53;4999927;28;20496;-82
2021/08/05 03:52:21;;;;;;;7.72;3.53;;;;;;;14.66;82.50;100451.09;4988641;28;20154;-82
2021/08/05 03:55:02;;;;;;;10.70;3.80;;;;;;;14.57;82.67;100444.72;4991839;28;20455;-82
2021/08/05 03:57:29;;;;;;;7.20;3.47;;;;;;;14.62;82.71;100439.88;5005471;28;20197;-81
2021/08/05 03:59:57;;;;;;;10.43;3.70;;;;;;;14.63;82.45;100441.59;4980671;28;20145;-80
2021/08/05 04:02:24;;;;;;;7.15;3.53;;;;;;;14.61;82.38;100438.22;4979943;28;20046;-80
2021/08/05 04:04:51;;;;;;;4.28;3.20;;;;;;;14.65;82.37;100436.16;4961539;28;20057;-81
2021/08/05 04:07:19;;;;;;;6.57;2.80;;;;;;;14.70;82.47;100434.00;5004997;28;20092;-84
2021/08/05 04:09:47;;;;;;;8.20;3.20;;;;;;;14.68;82.40;100439.41;5002082;28;20138;-81
2021/08/05 04:12:14;;;;;;;11.65;2.97;;;;;;;14.79;81.43;100440.38;5003452;28;20164;-80
2021/08/05 04:14:41;;;;;;;4.38;2.42;;;;;;;14.76;81.53;100448.56;5004146;28;20072;-80
2021/08/05 04:17:08;;;;;;;5.80;2.95;;;;;;;14.76;81.69;100451.22;4978287;28;20185;-84
2021/08/05 04:19:36;;;;;;;5.70;3.28;;;;;;;14.80;81.38;100445.53;4975006;28;20045;-81
2021/08/05 04:22:03;;;;;;;5.78;3.53;;;;;;;14.81;80.91;100439.28;4998636;28;20073;-82
2021/08/05 04:24:30;;;;;;;4.28;2.60;;;;;;;14.92;80.83;100438.44;4963031;28;20161;-81
2021/08/05 04:26:57;;;;;;;6.97;3.20;;;;;;;14.93;80.59;100442.75;4984142;28;20080;-83
2021/08/05 04:29:25;;;;;;;6.22;2.92;;;;;;;15.12;79.65;100440.31;4990343;28;20085;-83
2021/08/05 04:31:52;;;;;;;4.72;2.95;;;;;;;15.26;78.62;100435.69;4990375;28;20072;-82
2021/08/05 04:34:19;;;;;;;9.32;2.92;;;;;;;15.28;78.34;100437.25;4975669;28;20077;-81
2021/08/05 04:36:46;;;;;;;6.85;3.20;;;;;;;15.40;78.29;100433.63;5008312;28;20061;-82
2021/08/05 04:39:14;;;;;;;12.13;3.70;;;;;;;15.60;77.33;100431.13;4997678;28;20264;-82
2021/08/05 04:41:41;;;;;;;7.72;3.47;;;;;;;16.07;75.58;100426.31;4990238;28;20054;-83
2021/08/05 04:44:08;;;;;;;5.55;2.90;;;;;;;16.95;71.91;100423.09;5005056;28;20081;-82
2021/08/05 04:46:35;;;;;;;6.18;3.28;;;;;;;17.38;69.81;100425.41;5003974;28;20160;-83
2021/08/05 04:49:03;;;;;;;7.60;2.80;;;;;;;18.29;66.13;100417.06;5006227;28;20048;-80
2021/08/05 04:51:33;;;;;;;10.75;3.30;;;;;;;18.89;64.04;100421.03;4983710;28;20237;-82
2021/08/05 04:54:02;;;;;;;6.10;3.42;;;;;;;19.64;60.65;100415.47;4974896;28;20034;-83
2021/08/05 04:56:30;;;;;;;6.82;3.53;;;;;;;20.04;58.65;100411.41;4989047;28;20061;-81
2021/08/05 04:58:58;;;;;;;4.60;2.97;;;;;;;20.30;57.48;100414.94;5006081;28;20077;-83
2021/08/05 05:01:25;;;;;;;7.65;2.75;;;;;;;20.54;56.49;100414.28;4974286;28;20133;-83
2021/08/05 05:03:53;;;;;;;6.05;2.85;;;;;;;21.23;54.38;100413.16;5004077;28;20618;-86
2021/08/05 05:06:20;;;;;;;9.35;3.17;;;;;;;21.67;53.23;100404.84;5006364;28;20072;-80
2021/08/05 05:08:47;;;;;;;4.43;3.00;;;;;;;22.56;50.66;100408.41;4999313;28;20045;-80
2021/08/05 05:11:15;;;;;;;6.57;2.90;;;;;;;23.31;48.62;100409.72;5003991;28;20056;-82
2021/08/05 05:13:42;;;;;;;8.52;3.60;;;;;;;23.83;47.03;100407.16;4978661;28;20575;-81
2021/08/05 05:16:09;;;;;;;6.10;2.67;;;;;;;24.45;45.18;100412.28;4991819;28;20129;-83
2021/08/05 05:18:36;;;;;;;11.85;3.83;;;;;;;24.13;46.29;100412.56;4986872;28;20427;-84
2021/08/05 05:21:03;;;;;;;11.43;3.15;;;;;;;25.31;43.85;100414.34;5006480;28;20133;-81
2021/08/05 05:23:31;;;;;;;9.90;3.80;;;;;;;25.55;42.16;100410.47;4991457;28;20050;-84
2021/08/05 05:26:00;;;;;;;6.78;3.40;;;;;;;25.16;42.93;100406.31;5007530;28;20409;-83
2021/08/05 05:28:29;;;;;;;3.88;3.40;;;;;;;26.02;41.52;100401.72;4975924;28;20049;-78
2021/08/05 05:30:57;;;;;;;7.18;3.40;;;;;;;26.14;40.20;100404.72;5009100;28;20038;-83
2021/08/05 05:33:24;;;;;;;9.57;3.70;;;;;;;24.80;43.22;100406.28;4998710;28;20046;-80
2021/08/05 05:35:52;;;;;;;10.90;4.53;;;;;;;24.65;44.84;100401.75;5004863;28;20576;-82
2021/08/05 05:38:19;;;;;;;12.38;3.80;;;;;;;25.20;43.33;100403.06;4975905;28;20190;-83
2021/08/05 05:40:50;;;;;;;7.50;3.65;;;;;;;25.72;42.11;100410.00;5016913;28;20050;-83
2021/08/05 05:43:17;;;;;;;12.07;3.92;;;;;;;25.60;42.05;100399.94;5003437;28;20076;-83
2021/08/05 05:45:44;;;;;;;7.78;4.05;;;;;;;25.17;42.55;100405.28;5005812;28;20081;-79
2021/08/05 05:48:12;;;;;;;12.32;4.70;;;;;;;25.24;43.52;100403.50;5003446;28;20115;-83
2021/08/05 05:50:39;;;;;;;10.32;4.20;;;;;;;25.52;42.71;100412.50;5005669;28;20057;-80
2021/08/05 05:53:06;;;;;;;9.82;4.47;;;;;;;25.12;43.35;100408.56;4988058;28;20046;-80
2021/08/05 05:55:34;;;;;;;12.52;4.97;;;;;;;25.05;43.79;100410.31;4987045;28;20108;-81
2021/08/05 05:58:01;;;;;;;10.35;4.22;;;;;;;25.08;43.02;100401.03;4988181;28;20057;-81
2021/08/05 06:00:28;;;;;;;15.60;3.90;;;;;;;24.24;45.67;100402.22;5002766;28;20474;-82
2021/08/05 06:02:56;;;;;;;7.07;4.00;;;;;;;25.56;43.01;100404.88;4971987;28;20125;-80
2021/08/05 06:05:23;;;;;;;11.43;4.60;;;;;;;25.86;42.72;100405.56;5009662;28;20096;-86
2021/08/05 06:07:51;;;;;;;13.90;5.45;;;;;;;25.79;41.91;100401.16;5009497;28;20133;-79
2021/08/05 06:10:21;;;;;;;16.48;4.82;;;;;;;26.50;41.27;100400.00;5004045;28;20054;-81
2021/08/05 06:12:48;;;;;;;12.00;4.38;;;;;;;26.50;40.74;100396.47;4974607;28;20060;-84
2021/08/05 06:15:16;;;;;;;13.57;4.82;;;;;;;27.51;39.36;100399.28;4994128;28;20561;-82
2021/08/05 06:17:45;;;;;;;10.85;5.20;;;;;;;27.69;38.07;100395.97;5008371;28;20125;-82
2021/08/05 06:20:17;;;;;;;7.40;4.65;;;;;;;27.42;39.32;100395.13;4979278;28;20461;-79
2021/08/05 06:22:47;;;;;;;15.70;4.50;;;;;;;27.50;39.49;100398.47;4991504;28;20037;-80
2021/08/05 06:25:15;;;;;;;9.15;4.72;;;;;;;27.01;39.59;100396.03;4974347;28;20068;-79
2021/08/05 06:27:42;;;;;;;9.32;5.35;;;;;;;26.38;40.50;100404.25;4964596;28;20707;-85
2021/08/05 06:30:11;;;;;;;10.00;5.10;;;;;;;26.44;41.99;100389.19;5008252;28;20107;-81
2021/08/05 06:32:38;;;;;;;9.00;4.82;;;;;;;26.65;40.80;100391.75;5007309;28;20050;-79
2021/08/05 06:35:07;;;;;;;19.48;6.10;;;;;;;27.63;39.13;100391.41;4987183;28;20141;-80
2021/08/05 06:37:35;;;;;;;12.82;4.78;;;;;;;28.70;37.31;100393.75;4991934;28;20141;-82
2021/08/05 06:40:06;;;;;;;14.25;5.40;;;;;;;28.87;36.56;100401.41;4970873;28;20056;-82
2021/08/05 06:42:34;;;;;;;13.85;4.78;;;;;;;27.96;38.20;100391.41;5002329;28;20064;-80
2021/08/05 06:45:06;;;;;;;11.63;4.93;;;;;;;28.04;38.56;100395.78;4978389;28;20703;-79
2021/08/05 06:47:34;;;;;;;12.32;5.45;;;;;;;27.79;39.25;100401.03;4987696;28;20042;-79
2021/08/05 06:50:03;;;;;;;10.82;4.85;;;;;;;29.13;36.80;100406.69;4979832;28;20086;-80
2021/08/05 06:52:30;;;;;;;11.98;4.50;;;;;;;29.69;34.95;100411.38;4990745;28;20061;-81
2021/08/05 06:54:57;;;;;;;8.85;4.75;;;;;;;29.50;35.33;100409.63;4962930;28;20144;-80
2021/08/05 06:57:24;;;;;;;15.43;5.00;;;;;;;29.75;35.60;100412.34;5023373;28;20085;-82
2021/08/05 06:59:51;;;;;;;12.77;5.10;;;;;;;30.05;34.13;100407.09;4963000;28;20057;-79
2021/08/05 07:02:19;;;;;;;10.80;4.80;;;;;;;31.20;32.76;100403.66;4995643;28;20058;-83
2021/08/05 07:04:46;;;;;;;12.57;6.18;;;;;;;30.25;34.48;100410.44;4994174;28;20472;-81
2021/08/05 07:07:13;;;;;;;12.68;4.80;;;;;;;31.30;33.07;100398.56;4990720;28;20057;-83
2021/08/05 07:14:07;;;;;;;14.45;5.43;;;;;;;30.70;34.04;100404.72;5004197;28;20476;-80
2021/08/05 07:16:34;;;;;;;15.43;4.43;;;;;;;30.35;34.17;100412.69;5006649;28;20107;-83
2021/08/05 07:19:02;;;;;;;14.25;4.93;;;;;;;29.89;35.02;100402.22;4991544;28;20616;-82
2021/08/05 07:21:29;;;;;;;7.47;4.70;;;;;;;30.74;33.61;100408.66;4992672;28;20077;-81
2021/08/05 07:23:56;;;;;;;8.45;4.93;;;;;;;29.42;36.11;100399.03;5008523;28;20085;-80
2021/08/05 07:26:24;;;;;;;8.73;5.10;;;;;;;30.58;34.01;100405.72;4992687;28;20060;-81
2021/08/05 07:28:51;;;;;;;9.15;4.32;;;;;;;30.05;35.07;100404.38;4968808;28;20073;-82
2021/08/05 07:31:18;;;;;;;11.80;4.43;;;;;;;29.70;35.60;100402.16;4991142;28;20137;-81
2021/08/05 07:33:48;;;;;;;11.50;5.53;;;;;;;28.67;37.66;100396.88;5008716;28;20077;-80
2021/08/05 07:36:16;;;;;;;15.88;4.55;;;;;;;30.50;34.48;100393.28;5011156;28;20069;-80
2021/08/05 07:38:44;;;;;;;9.00;4.80;;;;;;;30.85;33.86;100387.25;4991361;28;20033;-79
2021/08/05 07:41:11;;;;;;;7.88;4.05;;;;;;;30.78;33.54;100390.03;4978964;28;20129;-82
2021/08/05 07:43:38;;;;;;;10.05;4.25;;;;;;;31.40;32.85;100397.97;5001796;28;20050;-79
2021/08/05 07:46:05;;;;;;;10.68;4.30;;;;;;;31.45;32.34;100396.22;5007295;28;20056;-79
2021/08/05 07:48:34;;;;;;;9.95;4.47;;;;;;;31.50;32.90;100399.06;4990150;28;20072;-81
2021/08/05 07:51:01;;;;;;;10.43;4.85;;;;;;;31.11;33.23;100388.75;4977813;28;20093;-80
2021/08/05 07:53:28;;;;;;;16.75;4.97;;;;;;;31.97;31.44;100391.00;4975237;28;20108;-80
2021/08/05 07:55:56;;;;;;;8.55;4.82;;;;;;;32.16;31.32;100382.69;4992985;28;20041;-82
2021/08/05 07:58:23;;;;;;;10.10;4.28;;;;;;;32.67;30.37;100389.25;4999935;28;20133;-79
2021/08/05 08:00:50;;;;;;;7.30;4.30;;;;;;;32.39;31.10;100390.84;4993312;28;20145;-81
2021/08/05 08:03:18;;;;;;;7.05;4.38;;;;;;;32.89;29.86;100386.69;4988228;28;20048;-82
2021/08/05 08:05:45;;;;;;;7.38;4.72;;;;;;;32.54;30.72;100384.06;5023669;28;20053;-82
2021/08/05 08:08:16;;;;;;;6.93;4.43;;;;;;;31.64;32.16;100390.69;4994483;28;20369;-79
2021/08/05 08:10:43;;;;;;;10.57;4.68;;;;;;;31.06;32.77;100392.16;4992587;28;20159;-81
2021/08/05 08:13:27;;;;;;;6.30;4.07;;;;;;;31.15;32.65;100381.78;4980337;28;20133;-82
2021/08/05 08:15:55;;;;;;;10.25;4.32;;;;;;;31.39;32.88;100383.56;4991131;28;20133;-82
2021/08/05 08:18:22;;;;;;;10.10;4.53;;;;;;;30.73;33.29;100389.88;4972272;28;20137;-81
2021/08/05 08:20:49;;;;;;;6.22;4.43;;;;;;;30.22;34.47;100389.19;4991088;28;20076;-80
2021/08/05 08:23:26;;;;;;;7.03;4.07;;;;;;;30.04;35.02;100388.31;4981875;28;20482;-79
2021/08/05 08:25:53;;;;;;;13.50;4.72;;;;;;;29.50;35.78;100393.34;4995126;28;20101;-79
2021/08/05 08:28:20;;;;;;;5.13;4.40;;;;;;;29.30;36.20;100389.94;5018006;28;20180;-79
2021/08/05 08:30:48;;;;;;;10.63;5.13;;;;;;;29.64;35.43;100394.94;5026566;28;20061;-81
2021/08/05 08:33:15;;;;;;;9.00;4.20;;;;;;;29.60;35.81;100382.03;4990876;28;20050;-84
2021/08/05 08:35:42;;;;;;;8.98;3.50;;;;;;;30.49;33.92;100372.59;4973939;28;20092;-79
2021/08/05 08:38:09;;;;;;;6.57;4.30;;;;;;;30.17;34.61;100372.75;4968130;28;20125;-79
2021/08/05 08:40:37;;;;;;;7.22;4.20;;;;;;;28.74;36.60;100381.44;4989295;28;20141;-80
2021/08/05 08:43:05;;;;;;;9.32;4.00;;;;;;;27.45;39.29;100378.50;4981774;28;20054;-84
2021/08/05 08:45:36;;;;;;;5.55;4.05;;;;;;;26.92;40.27;100378.34;4966644;28;20073;-80
2021/08/05 08:48:03;;;;;;;10.10;4.70;;;;;;;26.21;42.25;100365.16;4973074;28;20116;-79
2021/08/05 08:50:33;;;;;;;6.22;4.03;;;;;;;27.13;40.82;100363.91;4992188;28;20042;-81
2021/08/05 08:53:08;;;;;;;12.10;4.20;;;;;;;27.25;40.43;100364.97;4990153;28;20061;-80
2021/08/05 08:55:39;;;;;;;7.32;3.75;;;;;;;27.65;39.83;100359.56;4977908;28;20054;-79
2021/08/05 08:58:06;;;;;;;7.72;4.80;;;;;;;26.75;41.14;100364.41;4981783;28;20086;-80
2021/08/05 09:00:36;;;;;;;5.85;3.88;;;;;;;26.66;41.63;100361.03;5009879;28;20118;-81
2021/08/05 09:03:05;;;;;;;9.70;4.18;;;;;;;25.84;43.57;100353.69;4981167;28;20132;-80
2021/08/05 09:05:33;;;;;;;7.97;4.32;;;;;;;26.21;43.43;100359.75;5010093;28;20563;-79
2021/08/05 09:08:02;;;;;;;9.93;4.45;;;;;;;26.03;43.55;100349.47;4974805;28;20085;-81
2021/08/05 09:10:30;;;;;;;9.10;3.88;;;;;;;25.58;43.77;100348.91;4980806;28;20072;-80
2021/08/05 09:12:58;;;;;;;7.35;4.15;;;;;;;25.33;44.56;100350.34;4981375;28;20085;-80
2021/08/05 09:15:47;;;;;;;8.32;4.30;;;;;;;24.85;45.53;100358.09;4987358;28;20048;-80
2021/08/05 09:18:29;;;;;;;12.65;4.63;;;;;;;25.04;45.52;100351.25;4977765;28;20050;-83
2021/08/05 09:21:09;;;;;;;9.05;3.55;;;;;;;25.21;44.37;100339.22;4999700;28;20041;-81
2021/08/05 09:23:49;;;;;;;6.18;4.30;;;;;;;25.13;45.27;100342.91;4988997;28;20532;-79
2021/08/05 09:26:23;;;;;;;8.38;3.10;;;;;;;25.09;44.64;100340.78;5006632;28;20056;-78
2021/08/05 09:29:08;;;;;;;5.40;3.30;;;;;;;24.74;45.15;100338.72;5005641;28;20141;-79
2021/08/05 09:31:38;;;;;;;5.50;3.97;;;;;;;24.16;45.85;100336.91;5012903;28;20077;-80
2021/08/05 09:34:11;;;;;;;5.85;3.47;;;;;;;24.61;45.67;100340.41;5010460;28;20393;-80
2021/08/05 09:36:40;;;;;;;9.15;4.30;;;;;;;24.79;45.01;100332.75;5011473;28;20144;-81
2021/08/05 09:39:20;;;;;;;7.18;3.35;;;;;;;25.17;44.75;100330.72;4979496;28;20061;-82
2021/08/05 09:41:59;;;;;;;8.18;3.85;;;;;;;25.20;44.34;100324.94;4995950;28;20112;-82
2021/08/05 09:44:48;;;;;;;5.95;3.13;;;;;;;25.04;44.12;100340.47;5012398;28;20072;-81
2021/08/05 09:47:16;;;;;;;10.95;4.22;;;;;;;25.05;43.42;100334.09;4984355;28;20509;-82
2021/08/05 09:49:46;;;;;;;5.15;3.00;;;;;;;25.58;43.06;100321.09;4984470;28;20107;-80
2021/08/05 09:52:31;;;;;;;5.93;2.80;;;;;;;25.76;42.10;100324.19;4996581;28;20366;-86
2021/08/05 09:55:01;;;;;;;5.43;3.10;;;;;;;25.60;42.43;100319.88;5020592;28;20048;-79
2021/08/05 09:57:37;;;;;;;3.60;2.72;;;;;;;25.31;43.07;100323.59;5017176;28;20389;-80
2021/08/05 10:00:07;;;;;;;6.28;3.08;;;;;;;24.81;44.05;100328.03;4999470;28;20054;-80
2021/08/05 10:02:49;;;;;;;4.70;2.63;;;;;;;24.71;44.55;100314.84;4958702;28;20416;-79
2021/08/05 10:05:24;;;;;;;6.47;3.50;;;;;;;24.59;45.01;100316.41;4973881;28;20081;-81
2021/08/05 10:07:56;;;;;;;;;;;;;;;25.04;44.52;100302.75;4993934;28;20144;-79
2021/08/05 10:10:25;;;;;;;5.88;3.50;;;;;;;24.24;45.94;100308.06;5014854;28;19921;-82
2021/08/05 10:13:00;;;;;;;4.07;2.88;;;;;;;24.35;46.11;100312.13;5001602;28;20196;-83
2021/08/05 10:15:52;;;;;;;4.82;3.38;;;;;;;24.79;44.82;100310.41;5007804;28;20409;-82
2021/08/05 10:18:20;;;;;;;5.55;3.10;;;;;;;24.75;44.96;100310.75;4980048;28;20054;-80
2021/08/05 10:20:48;;;;;;;5.25;2.83;;;;;;;25.02;44.75;100298.41;4982136;28;20054;-85
2021/08/05 10:23:15;;;;;;;6.50;3.08;;;;;;;25.91;42.47;100289.00;5009471;28;20080;-80
2021/08/05 10:25:43;;;;;;;3.97;2.65;;;;;;;25.89;42.98;100293.75;4965831;28;20148;-81
2021/08/05 10:28:13;;;;;;;8.05;2.92;;;;;;;25.22;43.86;100290.56;4993510;28;20049;-81
2021/08/05 10:30:41;;;;;;;2.80;2.55;;;;;;;25.46;41.52;100297.38;4996382;28;20061;-81
2021/08/05 10:33:08;;;;;;;4.35;2.40;;;;;;;24.98;42.49;100288.22;5011793;28;20085;-80
2021/08/05 10:35:36;;;;;;;2.92;2.38;;;;;;;24.98;42.61;100290.91;4999176;28;20057;-81
2021/08/05 10:38:05;;;;;;;5.05;2.63;;;;;;;25.09;42.97;100295.00;4997710;28;20125;-81
2021/08/05 10:40:33;;;;;;;4.47;2.38;;;;;;;24.94;42.50;100293.16;5012394;28;20060;-79
2021/08/05 10:43:01;;;;;;;6.25;2.50;;;;;;;25.38;41.89;100288.59;4983847;28;20057;-79
2021/08/05 10:45:33;;;;;;;2.50;2.05;;;;;;;25.55;42.11;100283.78;4997942;28;20053;-79
2021/08/05 10:48:02;;;;;;;3.15;2.45;;;;;;;25.82;41.28;100290.22;4947539;28;20103;-79
2021/08/05 10:50:29;;;;;;;10.27;2.83;;;;;;;26.47;40.33;100278.91;4998634;28;20149;-78
2021/08/05 10:52:56;;;;;;;3.20;2.80;;;;;;;26.85;39.69;100264.06;4997623;28;20461;-81
2021/08/05 10:55:32;;;;;;;5.13;3.00;;;;;;;26.87;39.81;100256.59;4999793;28;20141;-78
2021/08/05 10:58:10;;;;;;;4.32;2.70;;;;;;;26.72;39.65;100263.00;4979581;28;20046;-79
2021/08/05 11:00:52;;;;;;;4.95;2.47;;;;;;;26.45;40.62;100263.97;4980866;28;20050;-81
2021/08/05 11:03:31;;;;;;;3.47;2.65;;;;;;;26.13;40.88;100252.00;5007226;28;20138;-80
2021/08/05 11:06:01;;;;;;;4.35;2.78;;;;;;;25.60;41.67;100255.19;5011794;28;20058;-81
2021/08/05 11:08:30;;;;;;;4.57;2.45;;;;;;;25.71;41.56;100251.09;5011564;28;20057;-80
2021/08/05 11:11:21;;;;;;;4.45;2.30;;;;;;;25.76;41.66;100251.41;5000676;28;20149;-81
2021/08/05 11:14:00;;;;;;;7.70;2.67;;;;;;;25.48;41.53;100249.50;4977887;28;20493;-80
2021/08/05 11:16:59;;;;;;;8.38;2.80;;;;;;;25.82;41.10;100234.41;4994715;28;20100;-83
2021/08/05 11:19:35;;;;;;;3.80;2.45;;;;;;;26.53;38.27;100244.06;4995755;28;20125;-79
2021/08/05 11:22:30;;;;;;;2.83;2.20;;;;;;;25.50;39.38;100227.75;5000425;28;20429;-80
2021/08/05 11:24:57;;;;;;;4.22;2.08;;;;;;;25.62;37.87;100236.97;5007843;28;20133;-79
2021/08/05 11:27:24;;;;;;;2.60;2.20;;;;;;;25.21;39.96;100224.22;5010990;28;20046;-79
2021/08/05 11:29:51;;;;;;;5.70;2.30;;;;;;;26.01;38.06;100227.44;4987990;28;20568;-80
2021/08/05 11:32:39;;;;;;;3.80;1.98;;;;;;;26.44;37.66;100225.34;4991960;28;20062;-80
2021/08/05 11:35:07;;;;;;;5.20;2.42;;;;;;;25.95;38.82;100217.47;4982213;28;20499;-80
2021/08/05 11:37:36;;;;;;;6.97;2.25;;;;;;;25.80;39.39;100224.84;4984543;28;20114;-79
2021/08/05 11:40:05;;;;;;;4.03;2.08;;;;;;;25.02;40.34;100222.19;4980936;28;20358;-81
2021/08/05 11:42:34;;;;;;;4.25;2.03;;;;;;;25.18;40.28;100219.25;4986639;28;20083;-80